Airfield :
LOGIN :

Register | Disclaimer

   EN    FR    IT 

 










Legend :    VFR   Marginal VFR   IFR   Intensive IFR   Very Intensive IFR
Visi :
Ceiling :
>= 8 km
>= 3000ft
5 to 8 km
1000 to 3000 ft
1500m to 5 km
500 to 1000 ft
800 to 1500m
200 to 500 ft
< 800m
< 200 ft
Symbols :   Thunderstorms  Fog  Heavy snow  Heavy precipitations  Wind > 20 kt
SIGMETs :     Misc.  Thunderstorms  Icing  Turbulence  Mountain Waves  Volcanic Ashes







- Airport Elevation : 300 ft
- IATA code : MLA


LMML - Malta Luqa

CURRENT METAR :
  • 221545Z 08015KT 7000 SCT009 BKN020 15/13 Q1018 NOSIG

EXPIRED METARs :
  • 221515Z 08011KT 7000 SCT009 SCT018 15/13 Q1018 NOSIG
  • 221504Z 09014KT 8000 SCT010 SCT017 15/13 Q1018 NOSIG
  • 221415Z 09018KT 8000 SCT017 SCT035 15/13 Q1018 NOSIG
  • 221400Z 09014KT 8000 SCT015 SCT030 15/13 Q1018 NOSIG
  • 221345Z 10016KT 7000 SCT017 SCT030 15/12 Q1019 NOSIG
  • 221315Z 10017KT 7000 SCT014 SCT025 15/12 Q1019 NOSIG

TAF TAF LMML
Valid from the 22 at 12:00 until the 23 at 12:00 UTC


221100Z 2212/2312 09018G28KT 9999 SCT012 BKN024
TEMPO 2212/2218 6000 SHRA RA BKN010
PROB30
TEMPO 2212/2218 VRB25G35KT 4000 TSRA TSRAGS BKN010 BKN070CB
BECMG 2303/2306 08018KT
PROB30
TEMPO 2303/2306 6000 SHRA RA BKN010
BECMG 2309/2312 SCT020
No reported NOTAMs for that airfield.
1 SIGMET reported for the Malta FIR (LMMM) :
 
Frequent thunderstorms
LMMM SIGMET 6 VALID 221554/221954 LMML
LMMM MALTA FIR FRQ TS OBS W OF E014 TOP FL300 MOV NNW NC=



MET'MAP, your aeronautical weather chart ! - Copyright ORBIFLY December 2007 - Disclaimer

ORBIFLY MET'MAP TEAM :

Programming & Development : Alexandra Zaïnal
Concept & Development : Baudouin d'Aumeries
Co-Development & Prog : Marc-Olivier Méhu
Technical & hardware support : Manuel Goepfert

Contact : metmap@orbifly.com




SOURCES & CREDITS :

   NOAA